sensor_id;sensor_type;location;lat;lon;timestamp;pressure;altitude;pressure_sealevel;temperature;humidity
65131;BME280;51709;54.912;8.316;2023-02-15T00:03:21;102923.09;;;2.70;75.43
65131;BME280;51709;54.912;8.316;2023-02-15T00:08:42;102916.06;;;2.65;75.30
65131;BME280;51709;54.912;8.316;2023-02-15T00:14:15;102910.16;;;2.64;75.56
65131;BME280;51709;54.912;8.316;2023-02-15T00:19:36;102901.84;;;2.68;75.54
65131;BME280;51709;54.912;8.316;2023-02-15T00:24:56;102899.19;;;2.65;75.66
65131;BME280;51709;54.912;8.316;2023-02-15T00:30:17;102888.91;;;2.62;75.87
65131;BME280;51709;54.912;8.316;2023-02-15T00:35:38;102890.56;;;2.61;75.91
65131;BME280;51709;54.912;8.316;2023-02-15T00:41:00;102887.09;;;2.59;75.99
65131;BME280;51709;54.912;8.316;2023-02-15T00:46:21;102886.25;;;2.59;76.06
65131;BME280;51709;54.912;8.316;2023-02-15T00:51:42;102886.19;;;2.57;76.02
65131;BME280;51709;54.912;8.316;2023-02-15T00:57:02;102875.97;;;2.56;76.24
65131;BME280;51709;54.912;8.316;2023-02-15T01:02:23;102873.38;;;2.54;76.22
65131;BME280;51709;54.912;8.316;2023-02-15T01:07:44;102868.34;;;2.56;76.49
65131;BME280;51709;54.912;8.316;2023-02-15T01:13:06;102861.75;;;2.59;76.55
65131;BME280;51709;54.912;8.316;2023-02-15T01:18:27;102860.16;;;2.61;76.62
65131;BME280;51709;54.912;8.316;2023-02-15T01:23:48;102857.72;;;2.63;76.60
65131;BME280;51709;54.912;8.316;2023-02-15T01:29:09;102851.00;;;2.65;76.63
65131;BME280;51709;54.912;8.316;2023-02-15T01:34:29;102848.41;;;2.64;76.73
65131;BME280;51709;54.912;8.316;2023-02-15T01:39:50;102843.34;;;2.64;76.92
65131;BME280;51709;54.912;8.316;2023-02-15T01:45:30;102846.88;;;2.67;77.14
65131;BME280;51709;54.912;8.316;2023-02-15T01:50:58;102841.81;;;2.67;77.23
65131;BME280;51709;54.912;8.316;2023-02-15T01:56:25;102845.44;;;2.72;77.25
65131;BME280;51709;54.912;8.316;2023-02-15T02:01:47;102833.88;;;2.79;76.98
65131;BME280;51709;54.912;8.316;2023-02-15T02:07:12;102827.34;;;2.84;76.86
65131;BME280;51709;54.912;8.316;2023-02-15T02:12:34;102813.53;;;2.97;76.68
65131;BME280;51709;54.912;8.316;2023-02-15T02:18:10;102814.53;;;3.01;76.42
65131;BME280;51709;54.912;8.316;2023-02-15T02:24:00;102808.88;;;3.08;76.29
65131;BME280;51709;54.912;8.316;2023-02-15T02:40:40;102792.16;;;2.92;76.11
65131;BME280;51709;54.912;8.316;2023-02-15T02:46:11;102790.94;;;2.82;76.23
65131;BME280;51709;54.912;8.316;2023-02-15T02:51:34;102788.84;;;2.73;76.45
65131;BME280;51709;54.912;8.316;2023-02-15T02:56:56;102767.59;;;2.70;76.65
65131;BME280;51709;54.912;8.316;2023-02-15T03:02:26;102764.63;;;2.60;76.78
65131;BME280;51709;54.912;8.316;2023-02-15T03:07:51;102769.69;;;2.60;76.73
65131;BME280;51709;54.912;8.316;2023-02-15T03:13:14;102767.97;;;2.59;76.69
65131;BME280;51709;54.912;8.316;2023-02-15T03:18:45;102767.72;;;2.53;76.66
65131;BME280;51709;54.912;8.316;2023-02-15T03:24:17;102743.63;;;2.43;76.88
65131;BME280;51709;54.912;8.316;2023-02-15T03:29:41;102734.16;;;2.39;77.16
65131;BME280;51709;54.912;8.316;2023-02-15T03:35:03;102743.38;;;2.37;77.13
65131;BME280;51709;54.912;8.316;2023-02-15T03:40:44;102721.31;;;2.35;77.19
65131;BME280;51709;54.912;8.316;2023-02-15T03:46:37;102733.69;;;2.28;77.21
65131;BME280;51709;54.912;8.316;2023-02-15T03:52:02;102720.22;;;2.29;77.31
65131;BME280;51709;54.912;8.316;2023-02-15T03:57:25;102724.50;;;2.30;77.38
65131;BME280;51709;54.912;8.316;2023-02-15T04:03:33;102722.81;;;2.31;77.45
65131;BME280;51709;54.912;8.316;2023-02-15T04:08:57;102723.75;;;2.33;77.38
65131;BME280;51709;54.912;8.316;2023-02-15T04:14:37;102716.69;;;2.45;76.88
65131;BME280;51709;54.912;8.316;2023-02-15T04:20:16;102710.03;;;2.47;76.69
65131;BME280;51709;54.912;8.316;2023-02-15T04:25:55;102710.88;;;2.48;76.91
65131;BME280;51709;54.912;8.316;2023-02-15T04:31:16;102703.97;;;2.44;76.83
65131;BME280;51709;54.912;8.316;2023-02-15T04:36:37;102700.44;;;2.40;76.88
65131;BME280;51709;54.912;8.316;2023-02-15T04:41:58;102700.53;;;2.43;76.82
65131;BME280;51709;54.912;8.316;2023-02-15T04:47:19;102696.06;;;2.38;76.94
65131;BME280;51709;54.912;8.316;2023-02-15T04:52:40;102691.69;;;2.34;77.15
65131;BME280;51709;54.912;8.316;2023-02-15T04:58:01;102682.47;;;2.36;76.95
65131;BME280;51709;54.912;8.316;2023-02-15T05:03:21;102688.22;;;2.31;76.91
65131;BME280;51709;54.912;8.316;2023-02-15T05:08:42;102675.28;;;2.25;77.09
65131;BME280;51709;54.912;8.316;2023-02-15T05:14:03;102669.38;;;2.25;77.27
65131;BME280;51709;54.912;8.316;2023-02-15T05:19:24;102660.97;;;2.26;77.37
65131;BME280;51709;54.912;8.316;2023-02-15T05:24:44;102656.63;;;2.23;77.63
65131;BME280;51709;54.912;8.316;2023-02-15T05:30:24;102650.97;;;2.29;77.74
65131;BME280;51709;54.912;8.316;2023-02-15T05:35:45;102648.72;;;2.37;77.71
65131;BME280;51709;54.912;8.316;2023-02-15T05:41:07;102639.13;;;2.49;77.70
65131;BME280;51709;54.912;8.316;2023-02-15T05:46:28;102641.13;;;2.56;77.68
65131;BME280;51709;54.912;8.316;2023-02-15T05:51:49;102637.00;;;2.58;77.73
65131;BME280;51709;54.912;8.316;2023-02-15T05:57:10;102641.22;;;2.59;78.10
65131;BME280;51709;54.912;8.316;2023-02-15T06:02:35;102633.50;;;2.56;78.07
65131;BME280;51709;54.912;8.316;2023-02-15T06:07:55;102635.31;;;2.59;78.13
65131;BME280;51709;54.912;8.316;2023-02-15T06:13:16;102634.69;;;2.65;78.34
65131;BME280;51709;54.912;8.316;2023-02-15T06:18:37;102634.06;;;2.70;78.39
65131;BME280;51709;54.912;8.316;2023-02-15T06:23:57;102640.88;;;2.71;78.25
65131;BME280;51709;54.912;8.316;2023-02-15T06:29:18;102641.84;;;2.75;78.62
65131;BME280;51709;54.912;8.316;2023-02-15T06:34:39;102638.53;;;2.76;78.62
65131;BME280;51709;54.912;8.316;2023-02-15T06:40:00;102636.84;;;2.76;78.65
65131;BME280;51709;54.912;8.316;2023-02-15T06:45:25;102628.34;;;2.74;78.81
65131;BME280;51709;54.912;8.316;2023-02-15T06:50:47;102632.75;;;2.59;79.23
65131;BME280;51709;54.912;8.316;2023-02-15T06:56:12;102631.09;;;2.59;79.23
65131;BME280;51709;54.912;8.316;2023-02-15T07:01:33;102619.78;;;2.51;79.62
65131;BME280;51709;54.912;8.316;2023-02-15T07:06:58;102618.50;;;2.61;79.38
65131;BME280;51709;54.912;8.316;2023-02-15T07:12:22;102615.34;;;2.67;79.28
65131;BME280;51709;54.912;8.316;2023-02-15T07:18:08;102612.84;;;2.68;79.40
65131;BME280;51709;54.912;8.316;2023-02-15T07:23:31;102612.94;;;2.70;79.44
65131;BME280;51709;54.912;8.316;2023-02-15T07:28:59;102602.91;;;2.73;79.32
65131;BME280;51709;54.912;8.316;2023-02-15T07:34:28;102609.69;;;2.74;79.27
65131;BME280;51709;54.912;8.316;2023-02-15T07:39:52;102595.06;;;2.67;79.66
65131;BME280;51709;54.912;8.316;2023-02-15T07:45:14;102595.59;;;2.59;79.78
65131;BME280;51709;54.912;8.316;2023-02-15T07:50:44;102592.22;;;2.59;80.00
65131;BME280;51709;54.912;8.316;2023-02-15T07:56:20;102586.22;;;2.57;80.09
65131;BME280;51709;54.912;8.316;2023-02-15T08:01:40;102595.50;;;2.56;80.15
65131;BME280;51709;54.912;8.316;2023-02-15T08:07:02;102573.81;;;2.63;80.03
65131;BME280;51709;54.912;8.316;2023-02-15T08:12:26;102578.75;;;2.60;80.29
65131;BME280;51709;54.912;8.316;2023-02-15T08:17:52;102578.03;;;2.85;79.36
65131;BME280;51709;54.912;8.316;2023-02-15T08:23:15;102577.06;;;2.60;80.50
65131;BME280;51709;54.912;8.316;2023-02-15T08:28:42;102568.97;;;2.69;80.07
65131;BME280;51709;54.912;8.316;2023-02-15T08:34:13;102561.97;;;2.85;79.93
65131;BME280;51709;54.912;8.316;2023-02-15T08:39:35;102561.22;;;2.87;80.24
65131;BME280;51709;54.912;8.316;2023-02-15T08:44:56;102562.53;;;3.00;80.20
65131;BME280;51709;54.912;8.316;2023-02-15T08:50:30;102555.22;;;3.08;80.04
65131;BME280;51709;54.912;8.316;2023-02-15T08:55:56;102547.97;;;3.17;80.01
65131;BME280;51709;54.912;8.316;2023-02-15T09:01:21;102542.16;;;3.20;80.09
65131;BME280;51709;54.912;8.316;2023-02-15T09:06:42;102529.28;;;3.15;80.51
65131;BME280;51709;54.912;8.316;2023-02-15T09:12:07;102531.72;;;3.36;79.91
65131;BME280;51709;54.912;8.316;2023-02-15T09:17:28;102532.31;;;3.29;80.48
65131;BME280;51709;54.912;8.316;2023-02-15T09:22:48;102553.16;;;3.20;80.92
65131;BME280;51709;54.912;8.316;2023-02-15T09:28:13;102536.19;;;3.19;81.28
65131;BME280;51709;54.912;8.316;2023-02-15T09:33:34;102535.03;;;3.34;80.52
65131;BME280;51709;54.912;8.316;2023-02-15T09:39:03;102534.56;;;3.44;80.43
65131;BME280;51709;54.912;8.316;2023-02-15T09:44:58;102528.19;;;3.31;81.13
65131;BME280;51709;54.912;8.316;2023-02-15T09:56:30;102530.66;;;3.30;81.32
65131;BME280;51709;54.912;8.316;2023-02-15T10:19:07;102516.38;;;3.56;81.48
65131;BME280;51709;54.912;8.316;2023-02-15T10:41:07;102515.91;;;3.68;81.86
65131;BME280;51709;54.912;8.316;2023-02-15T11:09:24;102498.31;;;3.98;82.08
65131;BME280;51709;54.912;8.316;2023-02-15T11:15:14;102484.91;;;4.03;82.33
65131;BME280;51709;54.912;8.316;2023-02-15T11:20:43;102470.84;;;3.87;82.65
65131;BME280;51709;54.912;8.316;2023-02-15T11:26:13;102478.25;;;3.80;83.10
65131;BME280;51709;54.912;8.316;2023-02-15T11:31:42;102467.25;;;3.80;83.19
65131;BME280;51709;54.912;8.316;2023-02-15T11:37:08;102448.94;;;3.90;83.27
65131;BME280;51709;54.912;8.316;2023-02-15T11:42:31;102441.59;;;3.98;83.04
65131;BME280;51709;54.912;8.316;2023-02-15T11:47:51;102441.53;;;3.96;83.16
65131;BME280;51709;54.912;8.316;2023-02-15T11:53:17;102443.81;;;3.89;83.44
65131;BME280;51709;54.912;8.316;2023-02-15T12:04:22;102432.50;;;4.05;83.09
65131;BME280;51709;54.912;8.316;2023-02-15T12:10:17;102431.31;;;3.95;83.79
65131;BME280;51709;54.912;8.316;2023-02-15T12:15:52;102417.94;;;4.00;83.56
65131;BME280;51709;54.912;8.316;2023-02-15T12:21:32;102406.31;;;4.07;83.38
65131;BME280;51709;54.912;8.316;2023-02-15T12:27:05;102409.38;;;3.97;83.81
65131;BME280;51709;54.912;8.316;2023-02-15T12:32:47;102403.94;;;4.13;83.32
65131;BME280;51709;54.912;8.316;2023-02-15T12:43:36;102392.44;;;3.97;84.12
65131;BME280;51709;54.912;8.316;2023-02-15T12:49:17;102390.78;;;3.98;84.12
65131;BME280;51709;54.912;8.316;2023-02-15T12:54:42;102387.03;;;4.14;83.91
65131;BME280;51709;54.912;8.316;2023-02-15T13:00:06;102383.47;;;4.09;84.05
65131;BME280;51709;54.912;8.316;2023-02-15T13:05:37;102373.28;;;3.80;84.73
65131;BME280;51709;54.912;8.316;2023-02-15T13:11:03;102363.84;;;4.03;84.37
65131;BME280;51709;54.912;8.316;2023-02-15T13:16:30;102365.06;;;3.89;84.74
65131;BME280;51709;54.912;8.316;2023-02-15T13:21:53;102361.28;;;4.03;84.51
65131;BME280;51709;54.912;8.316;2023-02-15T13:27:18;102345.38;;;4.09;84.41
65131;BME280;51709;54.912;8.316;2023-02-15T13:32:41;102347.63;;;3.99;84.63
65131;BME280;51709;54.912;8.316;2023-02-15T13:38:41;102336.91;;;4.08;84.78
65131;BME280;51709;54.912;8.316;2023-02-15T13:49:44;102325.63;;;4.00;84.85
65131;BME280;51709;54.912;8.316;2023-02-15T13:55:27;102325.69;;;4.01;85.10
65131;BME280;51709;54.912;8.316;2023-02-15T14:01:10;102315.94;;;3.87;85.21
65131;BME280;51709;54.912;8.316;2023-02-15T14:06:51;102310.75;;;3.83;85.15
65131;BME280;51709;54.912;8.316;2023-02-15T14:12:45;102314.91;;;3.81;85.39
65131;BME280;51709;54.912;8.316;2023-02-15T14:18:22;102304.50;;;3.74;85.48
65131;BME280;51709;54.912;8.316;2023-02-15T14:23:55;102299.41;;;3.72;85.53
65131;BME280;51709;54.912;8.316;2023-02-15T14:29:48;102290.22;;;3.77;85.80
65131;BME280;51709;54.912;8.316;2023-02-15T14:35:30;102273.88;;;3.67;85.77
65131;BME280;51709;54.912;8.316;2023-02-15T14:40:59;102276.59;;;3.74;85.68
65131;BME280;51709;54.912;8.316;2023-02-15T14:46:58;102268.78;;;3.67;85.77
65131;BME280;51709;54.912;8.316;2023-02-15T14:52:21;102254.38;;;3.66;85.78
65131;BME280;51709;54.912;8.316;2023-02-15T14:57:55;102259.63;;;3.73;85.57
65131;BME280;51709;54.912;8.316;2023-02-15T15:03:19;102254.69;;;3.77;85.69
65131;BME280;51709;54.912;8.316;2023-02-15T15:08:41;102272.03;;;3.63;85.86
65131;BME280;51709;54.912;8.316;2023-02-15T15:14:03;102265.91;;;3.57;85.89
65131;BME280;51709;54.912;8.316;2023-02-15T15:47:58;102232.78;;;3.24;86.46
65131;BME280;51709;54.912;8.316;2023-02-15T15:53:29;102220.22;;;3.29;86.52
65131;BME280;51709;54.912;8.316;2023-02-15T15:58:57;102214.06;;;3.21;86.59
65131;BME280;51709;54.912;8.316;2023-02-15T16:04:28;102206.31;;;3.16;86.66
65131;BME280;51709;54.912;8.316;2023-02-15T16:15:25;102210.31;;;3.10;86.92
65131;BME280;51709;54.912;8.316;2023-02-15T16:20:56;102200.22;;;3.11;86.83
65131;BME280;51709;54.912;8.316;2023-02-15T16:32:25;102193.66;;;3.18;86.53
65131;BME280;51709;54.912;8.316;2023-02-15T16:37:45;102179.38;;;3.20;86.45
65131;BME280;51709;54.912;8.316;2023-02-15T16:43:13;102176.28;;;3.03;86.99
65131;BME280;51709;54.912;8.316;2023-02-15T16:48:40;102174.66;;;3.05;87.01
65131;BME280;51709;54.912;8.316;2023-02-15T16:54:08;102169.59;;;3.05;87.12
65131;BME280;51709;54.912;8.316;2023-02-15T16:59:41;102176.03;;;3.22;86.53
65131;BME280;51709;54.912;8.316;2023-02-15T17:10:34;102189.28;;;3.14;87.30
65131;BME280;51709;54.912;8.316;2023-02-15T17:21:25;102187.34;;;3.32;86.57
65131;BME280;51709;54.912;8.316;2023-02-15T17:26:51;102185.75;;;3.36;86.68
65131;BME280;51709;54.912;8.316;2023-02-15T17:32:17;102185.75;;;3.36;86.74
65131;BME280;51709;54.912;8.316;2023-02-15T17:43:01;102205.56;;;3.48;86.64
65131;BME280;51709;54.912;8.316;2023-02-15T17:48:34;102200.16;;;3.64;86.48
65131;BME280;51709;54.912;8.316;2023-02-15T17:53:55;102194.25;;;3.65;86.86
65131;BME280;51709;54.912;8.316;2023-02-15T17:59:36;102183.28;;;3.66;86.69
65131;BME280;51709;54.912;8.316;2023-02-15T18:05:16;102187.19;;;3.55;87.21
65131;BME280;51709;54.912;8.316;2023-02-15T18:10:55;102201.84;;;3.64;87.04
65131;BME280;51709;54.912;8.316;2023-02-15T18:16:38;102177.63;;;3.75;86.76
65131;BME280;51709;54.912;8.316;2023-02-15T18:22:09;102179.94;;;3.67;87.08
65131;BME280;51709;54.912;8.316;2023-02-15T18:27:33;102164.78;;;3.70;86.88
65131;BME280;51709;54.912;8.316;2023-02-15T18:32:55;102151.88;;;3.63;87.28
65131;BME280;51709;54.912;8.316;2023-02-15T18:38:18;102155.53;;;3.73;87.11
65131;BME280;51709;54.912;8.316;2023-02-15T18:43:39;102133.28;;;3.64;87.58
65131;BME280;51709;54.912;8.316;2023-02-15T18:49:00;102146.72;;;3.60;87.85
65131;BME280;51709;54.912;8.316;2023-02-15T18:54:23;102139.31;;;3.67;87.52
65131;BME280;51709;54.912;8.316;2023-02-15T18:59:44;102153.53;;;3.62;87.61
65131;BME280;51709;54.912;8.316;2023-02-15T19:05:05;102147.66;;;3.63;87.65
65131;BME280;51709;54.912;8.316;2023-02-15T19:10:32;102141.72;;;3.63;87.79
65131;BME280;51709;54.912;8.316;2023-02-15T19:15:52;102138.38;;;3.64;87.94
65131;BME280;51709;54.912;8.316;2023-02-15T19:21:16;102134.94;;;3.63;87.83
65131;BME280;51709;54.912;8.316;2023-02-15T19:26:41;102127.13;;;3.55;87.98
65131;BME280;51709;54.912;8.316;2023-02-15T19:32:09;102125.94;;;3.73;87.71
65131;BME280;51709;54.912;8.316;2023-02-15T19:37:35;102134.09;;;3.63;88.03
65131;BME280;51709;54.912;8.316;2023-02-15T19:43:01;102115.31;;;3.56;88.26
65131;BME280;51709;54.912;8.316;2023-02-15T19:48:22;102118.66;;;3.55;88.35
65131;BME280;51709;54.912;8.316;2023-02-15T19:53:45;102122.84;;;3.54;88.32
65131;BME280;51709;54.912;8.316;2023-02-15T19:59:17;102108.78;;;3.66;88.03
65131;BME280;51709;54.912;8.316;2023-02-15T20:04:41;102095.00;;;3.56;88.46
65131;BME280;51709;54.912;8.316;2023-02-15T20:10:02;102089.03;;;3.55;88.59
65131;BME280;51709;54.912;8.316;2023-02-15T20:15:24;102068.78;;;3.57;88.59
65131;BME280;51709;54.912;8.316;2023-02-15T20:20:51;102068.84;;;3.60;88.40
65131;BME280;51709;54.912;8.316;2023-02-15T20:26:17;102062.97;;;3.61;88.50
65131;BME280;51709;54.912;8.316;2023-02-15T20:31:38;102063.31;;;3.74;88.76
65131;BME280;51709;54.912;8.316;2023-02-15T20:36:59;102063.41;;;3.77;88.85
65131;BME280;51709;54.912;8.316;2023-02-15T20:42:21;102047.50;;;3.84;88.70
65131;BME280;51709;54.912;8.316;2023-02-15T20:47:41;102060.56;;;3.98;88.57
65131;BME280;51709;54.912;8.316;2023-02-15T20:53:08;102043.84;;;4.06;88.60
65131;BME280;51709;54.912;8.316;2023-02-15T20:58:29;102027.97;;;4.15;88.61
65131;BME280;51709;54.912;8.316;2023-02-15T21:03:50;102034.00;;;4.20;88.63
65131;BME280;51709;54.912;8.316;2023-02-15T21:09:15;102029.09;;;4.26;88.70
65131;BME280;51709;54.912;8.316;2023-02-15T21:14:38;102021.53;;;4.29;88.74
65131;BME280;51709;54.912;8.316;2023-02-15T21:19:59;102015.72;;;4.34;88.83
65131;BME280;51709;54.912;8.316;2023-02-15T21:25:26;102012.38;;;4.36;88.84
65131;BME280;51709;54.912;8.316;2023-02-15T21:30:50;102015.09;;;4.44;88.80
65131;BME280;51709;54.912;8.316;2023-02-15T21:36:15;102000.94;;;4.54;88.76
65131;BME280;51709;54.912;8.316;2023-02-15T21:41:39;102003.66;;;4.61;88.79
65131;BME280;51709;54.912;8.316;2023-02-15T21:47:30;102001.41;;;4.77;88.62
65131;BME280;51709;54.912;8.316;2023-02-15T21:53:20;101993.19;;;4.87;88.80
65131;BME280;51709;54.912;8.316;2023-02-15T21:58:42;101994.16;;;4.94;88.70
65131;BME280;51709;54.912;8.316;2023-02-15T22:04:02;101990.84;;;4.98;88.75
65131;BME280;51709;54.912;8.316;2023-02-15T22:09:26;101980.69;;;4.98;88.92
65131;BME280;51709;54.912;8.316;2023-02-15T22:14:54;101992.66;;;5.02;89.02
65131;BME280;51709;54.912;8.316;2023-02-15T22:20:19;101988.41;;;5.03;88.99
65131;BME280;51709;54.912;8.316;2023-02-15T22:25:41;101978.28;;;5.04;89.09
65131;BME280;51709;54.912;8.316;2023-02-15T22:31:08;101968.13;;;5.06;89.12
65131;BME280;51709;54.912;8.316;2023-02-15T22:36:30;101964.69;;;5.04;89.17
65131;BME280;51709;54.912;8.316;2023-02-15T22:41:51;101967.22;;;5.04;89.26
65131;BME280;51709;54.912;8.316;2023-02-15T22:47:19;101956.97;;;5.01;89.40
65131;BME280;51709;54.912;8.316;2023-02-15T22:52:40;101969.75;;;5.02;89.45
65131;BME280;51709;54.912;8.316;2023-02-15T22:58:01;101960.47;;;5.04;89.62
65131;BME280;51709;54.912;8.316;2023-02-15T23:03:24;101974.03;;;5.05;89.66
65131;BME280;51709;54.912;8.316;2023-02-15T23:08:45;101968.09;;;5.04;89.67
65131;BME280;51709;54.912;8.316;2023-02-15T23:14:15;101970.66;;;5.06;89.76
65131;BME280;51709;54.912;8.316;2023-02-15T23:19:43;101963.13;;;5.11;89.72
65131;BME280;51709;54.912;8.316;2023-02-15T23:25:07;101954.63;;;5.10;89.52
65131;BME280;51709;54.912;8.316;2023-02-15T23:30:28;101943.69;;;5.14;89.76
65131;BME280;51709;54.912;8.316;2023-02-15T23:35:49;101947.13;;;5.18;89.78
65131;BME280;51709;54.912;8.316;2023-02-15T23:41:11;101937.91;;;5.23;89.68
65131;BME280;51709;54.912;8.316;2023-02-15T23:46:45;101945.63;;;5.28;89.82
65131;BME280;51709;54.912;8.316;2023-02-15T23:52:10;101948.31;;;5.34;89.69
65131;BME280;51709;54.912;8.316;2023-02-15T23:57:30;101948.34;;;5.37;89.87
